sensor_id;sensor_type;location;lat;lon;timestamp;temperature;humidity
19340;HTU21D;9804;52.350;6.684;2024-03-02T00:00:10;10.52;-6.00
19340;HTU21D;9804;52.350;6.684;2024-03-02T00:02:45;10.45;-6.00
19340;HTU21D;9804;52.350;6.684;2024-03-02T00:05:18;10.45;-6.00
19340;HTU21D;9804;52.350;6.684;2024-03-02T00:07:45;10.55;-6.00
19340;HTU21D;9804;52.350;6.684;2024-03-02T00:10:14;10.59;-6.00
19340;HTU21D;9804;52.350;6.684;2024-03-02T00:12:41;10.64;-6.00
19340;HTU21D;9804;52.350;6.684;2024-03-02T00:15:44;10.65;-6.00
19340;HTU21D;9804;52.350;6.684;2024-03-02T00:18:13;10.72;-6.00
19340;HTU21D;9804;52.350;6.684;2024-03-02T00:20:40;10.83;-6.00
19340;HTU21D;9804;52.350;6.684;2024-03-02T00:23:07;10.77;-6.00
19340;HTU21D;9804;52.350;6.684;2024-03-02T00:25:44;10.83;-6.00
19340;HTU21D;9804;52.350;6.684;2024-03-02T00:28:23;10.90;-6.00
19340;HTU21D;9804;52.350;6.684;2024-03-02T00:33:26;10.87;-6.00
19340;HTU21D;9804;52.350;6.684;2024-03-02T00:35:53;10.93;-6.00
19340;HTU21D;9804;52.350;6.684;2024-03-02T00:38:19;10.83;-6.00
19340;HTU21D;9804;52.350;6.684;2024-03-02T00:40:45;10.75;-6.00
19340;HTU21D;9804;52.350;6.684;2024-03-02T00:45:58;10.85;-6.00
19340;HTU21D;9804;52.350;6.684;2024-03-02T00:48:23;10.77;-6.00
19340;HTU21D;9804;52.350;6.684;2024-03-02T00:50:52;10.79;-6.00
19340;HTU21D;9804;52.350;6.684;2024-03-02T00:53:23;11.00;-6.00
19340;HTU21D;9804;52.350;6.684;2024-03-02T00:55:52;10.86;-6.00
19340;HTU21D;9804;52.350;6.684;2024-03-02T00:58:18;10.80;-6.00
19340;HTU21D;9804;52.350;6.684;2024-03-02T01:00:44;10.72;-6.00
19340;HTU21D;9804;52.350;6.684;2024-03-02T01:03:09;10.79;-6.00
19340;HTU21D;9804;52.350;6.684;2024-03-02T01:05:36;10.83;-6.00
19340;HTU21D;9804;52.350;6.684;2024-03-02T01:08:02;10.88;-6.00
19340;HTU21D;9804;52.350;6.684;2024-03-02T01:10:27;10.86;-6.00
19340;HTU21D;9804;52.350;6.684;2024-03-02T01:12:53;10.80;-6.00
19340;HTU21D;9804;52.350;6.684;2024-03-02T01:15:19;10.87;-6.00
19340;HTU21D;9804;52.350;6.684;2024-03-02T01:17:44;10.94;-6.00
19340;HTU21D;9804;52.350;6.684;2024-03-02T01:20:10;10.98;-6.00
19340;HTU21D;9804;52.350;6.684;2024-03-02T01:22:36;10.80;-6.00
19340;HTU21D;9804;52.350;6.684;2024-03-02T01:25:03;10.71;-6.00
19340;HTU21D;9804;52.350;6.684;2024-03-02T01:27:28;10.80;-6.00
19340;HTU21D;9804;52.350;6.684;2024-03-02T01:29:54;10.67;-6.00
19340;HTU21D;9804;52.350;6.684;2024-03-02T01:32:20;10.59;-6.00
19340;HTU21D;9804;52.350;6.684;2024-03-02T01:34:45;10.62;-6.00
19340;HTU21D;9804;52.350;6.684;2024-03-02T01:37:11;10.57;-6.00
19340;HTU21D;9804;52.350;6.684;2024-03-02T01:39:36;10.69;-6.00
19340;HTU21D;9804;52.350;6.684;2024-03-02T01:42:02;10.56;-6.00
19340;HTU21D;9804;52.350;6.684;2024-03-02T01:44:27;10.60;-6.00
19340;HTU21D;9804;52.350;6.684;2024-03-02T01:46:53;10.68;-6.00
19340;HTU21D;9804;52.350;6.684;2024-03-02T01:49:18;10.69;-6.00
19340;HTU21D;9804;52.350;6.684;2024-03-02T01:51:44;10.64;-6.00
19340;HTU21D;9804;52.350;6.684;2024-03-02T01:54:10;10.75;-6.00
19340;HTU21D;9804;52.350;6.684;2024-03-02T01:56:35;10.70;-6.00
19340;HTU21D;9804;52.350;6.684;2024-03-02T01:59:01;10.70;-6.00
19340;HTU21D;9804;52.350;6.684;2024-03-02T02:01:27;10.60;-6.00
19340;HTU21D;9804;52.350;6.684;2024-03-02T02:03:52;10.66;-6.00
19340;HTU21D;9804;52.350;6.684;2024-03-02T02:06:18;10.75;-6.00
19340;HTU21D;9804;52.350;6.684;2024-03-02T02:08:43;10.73;-6.00
19340;HTU21D;9804;52.350;6.684;2024-03-02T02:11:09;10.74;-6.00
19340;HTU21D;9804;52.350;6.684;2024-03-02T02:13:34;10.83;-6.00
19340;HTU21D;9804;52.350;6.684;2024-03-02T02:16:07;10.77;-6.00
19340;HTU21D;9804;52.350;6.684;2024-03-02T02:18:33;10.81;-6.00
19340;HTU21D;9804;52.350;6.684;2024-03-02T02:20:59;10.81;-6.00
19340;HTU21D;9804;52.350;6.684;2024-03-02T02:23:24;10.90;-6.00
19340;HTU21D;9804;52.350;6.684;2024-03-02T02:25:50;10.93;-6.00
19340;HTU21D;9804;52.350;6.684;2024-03-02T02:28:15;10.96;-6.00
19340;HTU21D;9804;52.350;6.684;2024-03-02T02:30:41;10.98;-6.00
19340;HTU21D;9804;52.350;6.684;2024-03-02T02:33:06;10.97;-6.00
19340;HTU21D;9804;52.350;6.684;2024-03-02T02:35:32;10.98;-6.00
19340;HTU21D;9804;52.350;6.684;2024-03-02T02:37:58;10.99;-6.00
19340;HTU21D;9804;52.350;6.684;2024-03-02T02:40:26;10.94;-6.00
19340;HTU21D;9804;52.350;6.684;2024-03-02T02:42:52;10.97;-6.00
19340;HTU21D;9804;52.350;6.684;2024-03-02T02:45:18;10.96;-6.00
19340;HTU21D;9804;52.350;6.684;2024-03-02T02:47:44;10.87;-6.00
19340;HTU21D;9804;52.350;6.684;2024-03-02T02:50:11;10.97;-6.00
19340;HTU21D;9804;52.350;6.684;2024-03-02T02:52:37;11.00;-6.00
19340;HTU21D;9804;52.350;6.684;2024-03-02T02:55:06;11.01;-6.00
19340;HTU21D;9804;52.350;6.684;2024-03-02T02:57:32;11.07;-6.00
19340;HTU21D;9804;52.350;6.684;2024-03-02T03:00:08;11.08;-6.00
19340;HTU21D;9804;52.350;6.684;2024-03-02T03:02:44;10.99;-6.00
19340;HTU21D;9804;52.350;6.684;2024-03-02T03:05:11;11.01;-6.00
19340;HTU21D;9804;52.350;6.684;2024-03-02T03:07:37;11.04;-6.00
19340;HTU21D;9804;52.350;6.684;2024-03-02T03:10:05;10.94;-6.00
19340;HTU21D;9804;52.350;6.684;2024-03-02T03:12:32;10.83;-6.00
19340;HTU21D;9804;52.350;6.684;2024-03-02T03:14:58;10.83;-6.00
19340;HTU21D;9804;52.350;6.684;2024-03-02T03:17:23;10.70;-6.00
19340;HTU21D;9804;52.350;6.684;2024-03-02T03:19:49;10.57;-6.00
19340;HTU21D;9804;52.350;6.684;2024-03-02T03:22:15;10.50;-6.00
19340;HTU21D;9804;52.350;6.684;2024-03-02T03:24:41;10.40;-6.00
19340;HTU21D;9804;52.350;6.684;2024-03-02T03:27:06;10.27;-6.00
19340;HTU21D;9804;52.350;6.684;2024-03-02T03:29:32;10.24;-6.00
19340;HTU21D;9804;52.350;6.684;2024-03-02T03:31:57;10.12;-6.00
19340;HTU21D;9804;52.350;6.684;2024-03-02T03:34:23;10.20;-6.00
19340;HTU21D;9804;52.350;6.684;2024-03-02T03:36:48;10.25;-6.00
19340;HTU21D;9804;52.350;6.684;2024-03-02T03:39:14;10.33;-6.00
19340;HTU21D;9804;52.350;6.684;2024-03-02T03:41:40;10.30;-6.00
19340;HTU21D;9804;52.350;6.684;2024-03-02T03:44:06;10.42;-6.00
19340;HTU21D;9804;52.350;6.684;2024-03-02T03:46:31;10.48;-6.00
19340;HTU21D;9804;52.350;6.684;2024-03-02T03:48:57;10.51;-6.00
19340;HTU21D;9804;52.350;6.684;2024-03-02T03:51:22;10.49;-6.00
19340;HTU21D;9804;52.350;6.684;2024-03-02T03:53:50;10.55;-6.00
19340;HTU21D;9804;52.350;6.684;2024-03-02T03:56:16;10.51;-6.00
19340;HTU21D;9804;52.350;6.684;2024-03-02T03:58:41;10.56;-6.00
19340;HTU21D;9804;52.350;6.684;2024-03-02T04:01:07;10.63;-6.00
19340;HTU21D;9804;52.350;6.684;2024-03-02T04:03:32;10.64;-6.00
19340;HTU21D;9804;52.350;6.684;2024-03-02T04:05:58;10.69;-6.00
19340;HTU21D;9804;52.350;6.684;2024-03-02T04:08:23;10.67;-6.00
19340;HTU21D;9804;52.350;6.684;2024-03-02T04:10:49;10.72;-6.00
19340;HTU21D;9804;52.350;6.684;2024-03-02T04:13:14;10.73;-6.00
19340;HTU21D;9804;52.350;6.684;2024-03-02T04:15:40;10.74;-6.00
19340;HTU21D;9804;52.350;6.684;2024-03-02T04:18:08;10.75;-6.00
19340;HTU21D;9804;52.350;6.684;2024-03-02T04:20:33;10.78;-6.00
19340;HTU21D;9804;52.350;6.684;2024-03-02T04:22:59;10.82;-6.00
19340;HTU21D;9804;52.350;6.684;2024-03-02T04:25:24;10.74;-6.00
19340;HTU21D;9804;52.350;6.684;2024-03-02T04:27:50;10.78;-6.00
19340;HTU21D;9804;52.350;6.684;2024-03-02T04:30:15;10.78;-6.00
19340;HTU21D;9804;52.350;6.684;2024-03-02T04:32:41;10.72;-6.00
19340;HTU21D;9804;52.350;6.684;2024-03-02T04:35:07;10.86;-6.00
19340;HTU21D;9804;52.350;6.684;2024-03-02T04:37:35;10.94;-6.00
19340;HTU21D;9804;52.350;6.684;2024-03-02T04:40:01;10.84;-6.00
19340;HTU21D;9804;52.350;6.684;2024-03-02T04:42:26;11.14;-6.00
19340;HTU21D;9804;52.350;6.684;2024-03-02T04:44:52;11.20;-6.00
19340;HTU21D;9804;52.350;6.684;2024-03-02T04:47:17;10.98;-6.00
19340;HTU21D;9804;52.350;6.684;2024-03-02T04:49:43;11.07;-6.00
19340;HTU21D;9804;52.350;6.684;2024-03-02T04:52:08;11.17;-6.00
19340;HTU21D;9804;52.350;6.684;2024-03-02T04:54:34;11.09;-6.00
19340;HTU21D;9804;52.350;6.684;2024-03-02T04:57:19;11.08;-6.00
19340;HTU21D;9804;52.350;6.684;2024-03-02T04:59:45;11.12;-6.00
19340;HTU21D;9804;52.350;6.684;2024-03-02T05:02:11;11.29;-6.00
19340;HTU21D;9804;52.350;6.684;2024-03-02T05:04:39;11.29;-6.00
19340;HTU21D;9804;52.350;6.684;2024-03-02T05:07:05;11.31;-6.00
19340;HTU21D;9804;52.350;6.684;2024-03-02T05:09:31;11.20;-6.00
19340;HTU21D;9804;52.350;6.684;2024-03-02T05:11:57;11.25;-6.00
19340;HTU21D;9804;52.350;6.684;2024-03-02T05:14:41;11.05;-6.00
19340;HTU21D;9804;52.350;6.684;2024-03-02T05:17:07;10.93;-6.00
19340;HTU21D;9804;52.350;6.684;2024-03-02T05:19:32;10.94;-6.00
19340;HTU21D;9804;52.350;6.684;2024-03-02T05:21:58;10.88;-6.00
19340;HTU21D;9804;52.350;6.684;2024-03-02T05:24:23;10.88;-6.00
19340;HTU21D;9804;52.350;6.684;2024-03-02T05:26:49;10.90;-6.00
19340;HTU21D;9804;52.350;6.684;2024-03-02T05:29:14;10.84;-6.00
19340;HTU21D;9804;52.350;6.684;2024-03-02T05:31:40;10.90;-6.00
19340;HTU21D;9804;52.350;6.684;2024-03-02T05:34:05;10.84;-6.00
19340;HTU21D;9804;52.350;6.684;2024-03-02T05:36:31;10.83;-6.00
19340;HTU21D;9804;52.350;6.684;2024-03-02T05:38:57;10.63;-6.00
19340;HTU21D;9804;52.350;6.684;2024-03-02T05:41:22;10.59;-6.00
19340;HTU21D;9804;52.350;6.684;2024-03-02T05:43:48;10.53;-6.00
19340;HTU21D;9804;52.350;6.684;2024-03-02T05:46:14;10.41;-6.00
19340;HTU21D;9804;52.350;6.684;2024-03-02T05:48:40;10.35;-6.00
19340;HTU21D;9804;52.350;6.684;2024-03-02T05:51:05;10.24;-6.00
19340;HTU21D;9804;52.350;6.684;2024-03-02T05:53:31;10.14;-6.00
19340;HTU21D;9804;52.350;6.684;2024-03-02T05:55:56;10.21;-6.00
19340;HTU21D;9804;52.350;6.684;2024-03-02T05:58:22;10.11;-6.00
19340;HTU21D;9804;52.350;6.684;2024-03-02T06:01:23;10.24;-6.00
19340;HTU21D;9804;52.350;6.684;2024-03-02T06:03:55;10.31;-6.00
19340;HTU21D;9804;52.350;6.684;2024-03-02T06:06:20;10.43;-6.00
19340;HTU21D;9804;52.350;6.684;2024-03-02T06:08:46;10.24;-6.00
19340;HTU21D;9804;52.350;6.684;2024-03-02T06:11:11;10.34;-6.00
19340;HTU21D;9804;52.350;6.684;2024-03-02T06:13:37;10.21;-6.00
19340;HTU21D;9804;52.350;6.684;2024-03-02T06:16:02;10.16;-6.00
19340;HTU21D;9804;52.350;6.684;2024-03-02T06:18:28;10.23;-6.00
19340;HTU21D;9804;52.350;6.684;2024-03-02T06:20:54;10.07;-6.00
19340;HTU21D;9804;52.350;6.684;2024-03-02T06:23:19;10.00;-6.00
19340;HTU21D;9804;52.350;6.684;2024-03-02T06:25:45;9.95;-6.00
19340;HTU21D;9804;52.350;6.684;2024-03-02T06:28:10;9.95;-6.00
19340;HTU21D;9804;52.350;6.684;2024-03-02T06:30:36;9.86;-6.00
19340;HTU21D;9804;52.350;6.684;2024-03-02T06:33:01;9.86;-6.00
19340;HTU21D;9804;52.350;6.684;2024-03-02T06:35:29;9.82;-6.00
19340;HTU21D;9804;52.350;6.684;2024-03-02T06:37:54;9.80;-6.00
19340;HTU21D;9804;52.350;6.684;2024-03-02T06:40:19;9.78;-6.00
19340;HTU21D;9804;52.350;6.684;2024-03-02T06:42:46;9.71;-6.00
19340;HTU21D;9804;52.350;6.684;2024-03-02T06:45:11;9.66;-6.00
19340;HTU21D;9804;52.350;6.684;2024-03-02T06:47:37;9.60;-6.00
19340;HTU21D;9804;52.350;6.684;2024-03-02T06:50:02;9.57;-6.00
19340;HTU21D;9804;52.350;6.684;2024-03-02T06:52:28;9.56;-6.00
19340;HTU21D;9804;52.350;6.684;2024-03-02T06:54:53;9.56;-6.00
19340;HTU21D;9804;52.350;6.684;2024-03-02T06:57:19;9.74;-6.00
19340;HTU21D;9804;52.350;6.684;2024-03-02T06:59:46;9.84;-6.00
19340;HTU21D;9804;52.350;6.684;2024-03-02T07:02:12;9.92;-6.00
19340;HTU21D;9804;52.350;6.684;2024-03-02T07:04:37;10.22;-6.00
19340;HTU21D;9804;52.350;6.684;2024-03-02T07:07:03;10.36;-6.00
19340;HTU21D;9804;52.350;6.684;2024-03-02T07:09:29;10.24;-6.00
19340;HTU21D;9804;52.350;6.684;2024-03-02T07:11:54;10.22;-6.00
19340;HTU21D;9804;52.350;6.684;2024-03-02T07:14:19;10.28;-6.00
19340;HTU21D;9804;52.350;6.684;2024-03-02T07:16:45;10.24;-6.00
19340;HTU21D;9804;52.350;6.684;2024-03-02T07:19:10;10.23;-6.00
19340;HTU21D;9804;52.350;6.684;2024-03-02T07:21:36;10.22;-6.00
19340;HTU21D;9804;52.350;6.684;2024-03-02T07:24:02;10.09;-6.00
19340;HTU21D;9804;52.350;6.684;2024-03-02T07:26:31;10.13;-6.00
19340;HTU21D;9804;52.350;6.684;2024-03-02T07:28:56;9.97;-6.00
19340;HTU21D;9804;52.350;6.684;2024-03-02T07:31:22;10.20;-6.00
19340;HTU21D;9804;52.350;6.684;2024-03-02T07:33:47;10.14;-6.00
19340;HTU21D;9804;52.350;6.684;2024-03-02T07:36:13;10.25;-6.00
19340;HTU21D;9804;52.350;6.684;2024-03-02T07:38:39;10.24;-6.00
19340;HTU21D;9804;52.350;6.684;2024-03-02T07:41:05;10.41;-6.00
19340;HTU21D;9804;52.350;6.684;2024-03-02T07:43:31;10.34;-6.00
19340;HTU21D;9804;52.350;6.684;2024-03-02T07:45:58;10.40;-6.00
19340;HTU21D;9804;52.350;6.684;2024-03-02T07:48:24;10.40;-6.00
19340;HTU21D;9804;52.350;6.684;2024-03-02T07:50:50;10.51;-6.00
19340;HTU21D;9804;52.350;6.684;2024-03-02T07:53:16;10.54;-6.00
19340;HTU21D;9804;52.350;6.684;2024-03-02T07:55:41;10.57;-6.00
19340;HTU21D;9804;52.350;6.684;2024-03-02T07:58:07;10.63;-6.00
19340;HTU21D;9804;52.350;6.684;2024-03-02T08:00:32;10.69;-6.00
19340;HTU21D;9804;52.350;6.684;2024-03-02T08:02:58;10.67;-6.00
19340;HTU21D;9804;52.350;6.684;2024-03-02T08:05:24;10.67;-6.00
19340;HTU21D;9804;52.350;6.684;2024-03-02T08:07:49;10.71;-6.00
19340;HTU21D;9804;52.350;6.684;2024-03-02T08:10:18;11.02;-6.00
19340;HTU21D;9804;52.350;6.684;2024-03-02T08:12:44;11.19;-6.00
19340;HTU21D;9804;52.350;6.684;2024-03-02T08:15:09;11.39;-6.00
19340;HTU21D;9804;52.350;6.684;2024-03-02T08:17:36;11.49;-6.00
19340;HTU21D;9804;52.350;6.684;2024-03-02T08:20:02;11.55;-6.00
19340;HTU21D;9804;52.350;6.684;2024-03-02T08:22:28;11.67;-6.00
19340;HTU21D;9804;52.350;6.684;2024-03-02T08:24:54;11.62;-6.00
19340;HTU21D;9804;52.350;6.684;2024-03-02T08:27:20;11.67;-6.00
19340;HTU21D;9804;52.350;6.684;2024-03-02T08:29:45;11.43;-6.00
19340;HTU21D;9804;52.350;6.684;2024-03-02T08:32:11;11.71;-6.00
19340;HTU21D;9804;52.350;6.684;2024-03-02T08:34:36;11.64;-6.00
19340;HTU21D;9804;52.350;6.684;2024-03-02T08:37:02;11.62;-6.00
19340;HTU21D;9804;52.350;6.684;2024-03-02T08:39:28;11.72;-6.00
19340;HTU21D;9804;52.350;6.684;2024-03-02T08:41:54;11.68;-6.00
19340;HTU21D;9804;52.350;6.684;2024-03-02T08:44:20;11.77;-6.00
19340;HTU21D;9804;52.350;6.684;2024-03-02T08:46:45;11.92;-6.00
19340;HTU21D;9804;52.350;6.684;2024-03-02T08:49:12;11.96;-6.00
19340;HTU21D;9804;52.350;6.684;2024-03-02T08:51:37;11.98;-6.00
19340;HTU21D;9804;52.350;6.684;2024-03-02T08:54:03;12.11;-6.00
19340;HTU21D;9804;52.350;6.684;2024-03-02T08:56:30;12.20;-6.00
19340;HTU21D;9804;52.350;6.684;2024-03-02T08:58:55;12.33;-6.00
19340;HTU21D;9804;52.350;6.684;2024-03-02T09:01:21;12.50;-6.00
19340;HTU21D;9804;52.350;6.684;2024-03-02T09:03:46;12.46;-6.00
19340;HTU21D;9804;52.350;6.684;2024-03-02T09:06:13;12.37;-6.00
19340;HTU21D;9804;52.350;6.684;2024-03-02T09:08:39;12.49;-6.00
19340;HTU21D;9804;52.350;6.684;2024-03-02T09:11:05;12.26;-6.00
19340;HTU21D;9804;52.350;6.684;2024-03-02T09:13:32;12.22;-6.00
19340;HTU21D;9804;52.350;6.684;2024-03-02T09:15:58;12.34;-6.00
19340;HTU21D;9804;52.350;6.684;2024-03-02T09:18:23;12.35;-6.00
19340;HTU21D;9804;52.350;6.684;2024-03-02T09:20:48;12.71;-6.00
19340;HTU21D;9804;52.350;6.684;2024-03-02T09:23:14;12.87;-6.00
19340;HTU21D;9804;52.350;6.684;2024-03-02T09:25:40;13.07;-6.00
19340;HTU21D;9804;52.350;6.684;2024-03-02T09:28:05;12.89;-6.00
19340;HTU21D;9804;52.350;6.684;2024-03-02T09:30:32;12.97;-6.00
19340;HTU21D;9804;52.350;6.684;2024-03-02T09:32:57;12.64;-6.00
19340;HTU21D;9804;52.350;6.684;2024-03-02T09:35:24;12.61;-6.00
19340;HTU21D;9804;52.350;6.684;2024-03-02T09:37:49;12.99;-6.00
19340;HTU21D;9804;52.350;6.684;2024-03-02T09:40:15;13.00;-6.00
19340;HTU21D;9804;52.350;6.684;2024-03-02T09:42:41;12.91;-6.00
19340;HTU21D;9804;52.350;6.684;2024-03-02T09:45:09;12.97;-6.00
19340;HTU21D;9804;52.350;6.684;2024-03-02T09:47:34;13.04;-6.00
19340;HTU21D;9804;52.350;6.684;2024-03-02T09:50:00;13.03;-6.00
19340;HTU21D;9804;52.350;6.684;2024-03-02T09:52:25;13.20;-6.00
19340;HTU21D;9804;52.350;6.684;2024-03-02T09:54:51;13.29;-6.00
19340;HTU21D;9804;52.350;6.684;2024-03-02T09:57:16;13.19;-6.00
19340;HTU21D;9804;52.350;6.684;2024-03-02T09:59:42;13.05;-6.00
19340;HTU21D;9804;52.350;6.684;2024-03-02T10:02:08;13.10;-6.00
19340;HTU21D;9804;52.350;6.684;2024-03-02T10:04:33;13.27;-6.00
19340;HTU21D;9804;52.350;6.684;2024-03-02T10:07:17;13.43;-6.00
19340;HTU21D;9804;52.350;6.684;2024-03-02T10:09:47;13.58;-6.00
19340;HTU21D;9804;52.350;6.684;2024-03-02T10:12:15;13.61;-6.00
19340;HTU21D;9804;52.350;6.684;2024-03-02T10:14:41;13.90;-6.00
19340;HTU21D;9804;52.350;6.684;2024-03-02T10:17:13;13.73;-6.00
19340;HTU21D;9804;52.350;6.684;2024-03-02T10:19:40;13.56;-6.00
19340;HTU21D;9804;52.350;6.684;2024-03-02T10:22:07;13.53;-6.00
19340;HTU21D;9804;52.350;6.684;2024-03-02T10:24:41;13.44;-6.00
19340;HTU21D;9804;52.350;6.684;2024-03-02T10:27:08;13.43;-6.00
19340;HTU21D;9804;52.350;6.684;2024-03-02T10:29:39;13.82;-6.00
19340;HTU21D;9804;52.350;6.684;2024-03-02T10:32:06;13.75;-6.00
19340;HTU21D;9804;52.350;6.684;2024-03-02T10:34:33;13.94;-6.00
19340;HTU21D;9804;52.350;6.684;2024-03-02T10:36:59;13.99;-6.00
19340;HTU21D;9804;52.350;6.684;2024-03-02T10:39:25;13.83;-6.00
19340;HTU21D;9804;52.350;6.684;2024-03-02T10:41:52;13.92;-6.00
19340;HTU21D;9804;52.350;6.684;2024-03-02T10:44:18;13.99;-6.00
19340;HTU21D;9804;52.350;6.684;2024-03-02T10:46:45;13.84;-6.00
19340;HTU21D;9804;52.350;6.684;2024-03-02T10:49:11;13.80;-6.00
19340;HTU21D;9804;52.350;6.684;2024-03-02T10:51:36;13.91;-6.00
19340;HTU21D;9804;52.350;6.684;2024-03-02T10:54:03;14.19;-6.00
19340;HTU21D;9804;52.350;6.684;2024-03-02T10:56:32;14.19;-6.00
19340;HTU21D;9804;52.350;6.684;2024-03-02T11:01:55;14.19;-6.00
19340;HTU21D;9804;52.350;6.684;2024-03-02T11:04:24;14.36;-6.00
19340;HTU21D;9804;52.350;6.684;2024-03-02T11:06:50;14.07;-6.00
19340;HTU21D;9804;52.350;6.684;2024-03-02T11:09:20;14.44;-6.00
19340;HTU21D;9804;52.350;6.684;2024-03-02T11:11:54;14.36;-6.00
19340;HTU21D;9804;52.350;6.684;2024-03-02T11:14:24;14.54;-6.00
19340;HTU21D;9804;52.350;6.684;2024-03-02T11:16:50;14.24;-6.00
19340;HTU21D;9804;52.350;6.684;2024-03-02T11:19:16;14.29;-6.00
19340;HTU21D;9804;52.350;6.684;2024-03-02T11:21:42;14.54;-6.00
19340;HTU21D;9804;52.350;6.684;2024-03-02T11:26:52;14.65;-6.00
19340;HTU21D;9804;52.350;6.684;2024-03-02T11:34:35;14.88;-6.00
19340;HTU21D;9804;52.350;6.684;2024-03-02T11:37:02;14.71;-6.00
19340;HTU21D;9804;52.350;6.684;2024-03-02T11:39:28;15.00;-6.00
19340;HTU21D;9804;52.350;6.684;2024-03-02T11:41:55;15.17;-6.00
19340;HTU21D;9804;52.350;6.684;2024-03-02T11:44:21;14.99;-6.00
19340;HTU21D;9804;52.350;6.684;2024-03-02T11:47:01;14.94;-6.00
19340;HTU21D;9804;52.350;6.684;2024-03-02T11:52:11;15.40;-6.00
19340;HTU21D;9804;52.350;6.684;2024-03-02T11:54:40;15.44;-6.00
19340;HTU21D;9804;52.350;6.684;2024-03-02T11:57:07;15.33;-6.00
19340;HTU21D;9804;52.350;6.684;2024-03-02T11:59:33;15.19;-6.00
19340;HTU21D;9804;52.350;6.684;2024-03-02T12:01:59;15.13;-6.00
19340;HTU21D;9804;52.350;6.684;2024-03-02T12:04:26;15.17;-6.00
19340;HTU21D;9804;52.350;6.684;2024-03-02T12:07:09;15.14;-6.00
19340;HTU21D;9804;52.350;6.684;2024-03-02T12:09:35;15.01;-6.00
19340;HTU21D;9804;52.350;6.684;2024-03-02T12:12:05;15.56;-6.00
19340;HTU21D;9804;52.350;6.684;2024-03-02T12:14:32;15.51;-6.00
19340;HTU21D;9804;52.350;6.684;2024-03-02T12:16:58;15.53;-6.00
19340;HTU21D;9804;52.350;6.684;2024-03-02T12:19:27;15.82;-6.00
19340;HTU21D;9804;52.350;6.684;2024-03-02T12:21:56;15.67;-6.00
19340;HTU21D;9804;52.350;6.684;2024-03-02T12:24:23;15.88;-6.00
19340;HTU21D;9804;52.350;6.684;2024-03-02T12:26:50;15.85;-6.00
19340;HTU21D;9804;52.350;6.684;2024-03-02T12:29:16;16.00;-6.00
19340;HTU21D;9804;52.350;6.684;2024-03-02T12:31:45;15.93;-6.00
19340;HTU21D;9804;52.350;6.684;2024-03-02T12:34:14;15.99;-6.00
19340;HTU21D;9804;52.350;6.684;2024-03-02T12:36:40;15.82;-6.00
19340;HTU21D;9804;52.350;6.684;2024-03-02T12:39:07;15.75;-6.00
19340;HTU21D;9804;52.350;6.684;2024-03-02T12:41:36;15.91;-6.00
19340;HTU21D;9804;52.350;6.684;2024-03-02T12:44:02;15.93;-6.00
19340;HTU21D;9804;52.350;6.684;2024-03-02T12:46:28;15.96;-6.00
19340;HTU21D;9804;52.350;6.684;2024-03-02T12:48:53;16.04;-6.00
19340;HTU21D;9804;52.350;6.684;2024-03-02T12:51:19;16.04;-6.00
19340;HTU21D;9804;52.350;6.684;2024-03-02T12:53:45;16.02;-6.00
19340;HTU21D;9804;52.350;6.684;2024-03-02T12:56:10;16.15;-6.00
19340;HTU21D;9804;52.350;6.684;2024-03-02T12:58:40;15.99;-6.00
19340;HTU21D;9804;52.350;6.684;2024-03-02T13:01:07;16.22;-6.00
19340;HTU21D;9804;52.350;6.684;2024-03-02T13:03:40;16.18;-6.00
19340;HTU21D;9804;52.350;6.684;2024-03-02T13:06:06;16.13;-6.00
19340;HTU21D;9804;52.350;6.684;2024-03-02T13:08:33;16.20;-6.00
19340;HTU21D;9804;52.350;6.684;2024-03-02T13:10:58;16.06;-6.00
19340;HTU21D;9804;52.350;6.684;2024-03-02T13:13:24;16.50;-6.00
19340;HTU21D;9804;52.350;6.684;2024-03-02T13:15:49;16.57;-6.00
19340;HTU21D;9804;52.350;6.684;2024-03-02T13:18:17;16.35;-6.00
19340;HTU21D;9804;52.350;6.684;2024-03-02T13:20:43;16.00;-6.00
19340;HTU21D;9804;52.350;6.684;2024-03-02T13:23:08;16.03;-6.00
19340;HTU21D;9804;52.350;6.684;2024-03-02T13:25:35;16.08;-6.00
19340;HTU21D;9804;52.350;6.684;2024-03-02T13:28:01;16.41;-6.00
19340;HTU21D;9804;52.350;6.684;2024-03-02T13:30:27;16.57;-6.00
19340;HTU21D;9804;52.350;6.684;2024-03-02T13:32:53;16.64;-6.00
19340;HTU21D;9804;52.350;6.684;2024-03-02T13:35:19;16.30;-6.00
19340;HTU21D;9804;52.350;6.684;2024-03-02T13:37:44;16.64;-6.00
19340;HTU21D;9804;52.350;6.684;2024-03-02T13:40:10;16.86;-6.00
19340;HTU21D;9804;52.350;6.684;2024-03-02T13:42:39;16.67;-6.00
19340;HTU21D;9804;52.350;6.684;2024-03-02T13:45:06;16.73;-6.00
19340;HTU21D;9804;52.350;6.684;2024-03-02T13:47:32;17.01;-6.00
19340;HTU21D;9804;52.350;6.684;2024-03-02T13:49:57;17.19;-6.00
19340;HTU21D;9804;52.350;6.684;2024-03-02T13:52:23;16.92;-6.00
19340;HTU21D;9804;52.350;6.684;2024-03-02T13:54:51;17.31;-6.00
19340;HTU21D;9804;52.350;6.684;2024-03-02T13:57:17;17.26;-6.00
19340;HTU21D;9804;52.350;6.684;2024-03-02T13:59:45;17.33;-6.00
19340;HTU21D;9804;52.350;6.684;2024-03-02T14:02:12;16.93;-6.00
19340;HTU21D;9804;52.350;6.684;2024-03-02T14:04:38;17.09;-6.00
19340;HTU21D;9804;52.350;6.684;2024-03-02T14:07:05;17.06;-6.00
19340;HTU21D;9804;52.350;6.684;2024-03-02T14:09:35;17.26;-6.00
19340;HTU21D;9804;52.350;6.684;2024-03-02T14:12:02;17.20;-6.00
19340;HTU21D;9804;52.350;6.684;2024-03-02T14:14:28;17.26;-6.00
19340;HTU21D;9804;52.350;6.684;2024-03-02T14:16:54;17.18;-6.00
19340;HTU21D;9804;52.350;6.684;2024-03-02T14:19:21;16.98;-6.00
19340;HTU21D;9804;52.350;6.684;2024-03-02T14:21:47;16.74;-6.00
19340;HTU21D;9804;52.350;6.684;2024-03-02T14:24:13;16.79;-6.00
19340;HTU21D;9804;52.350;6.684;2024-03-02T14:26:39;16.67;-6.00
19340;HTU21D;9804;52.350;6.684;2024-03-02T14:29:04;16.76;-6.00
19340;HTU21D;9804;52.350;6.684;2024-03-02T14:31:30;16.95;-6.00
19340;HTU21D;9804;52.350;6.684;2024-03-02T14:33:59;16.99;-6.00
19340;HTU21D;9804;52.350;6.684;2024-03-02T14:36:25;16.93;-6.00
19340;HTU21D;9804;52.350;6.684;2024-03-02T14:38:52;17.11;-6.00
19340;HTU21D;9804;52.350;6.684;2024-03-02T14:41:18;17.00;-6.00
19340;HTU21D;9804;52.350;6.684;2024-03-02T14:43:43;16.81;-6.00
19340;HTU21D;9804;52.350;6.684;2024-03-02T14:46:09;16.74;-6.00
19340;HTU21D;9804;52.350;6.684;2024-03-02T14:48:38;16.80;-6.00
19340;HTU21D;9804;52.350;6.684;2024-03-02T14:51:04;16.89;-6.00
19340;HTU21D;9804;52.350;6.684;2024-03-02T14:53:30;16.90;-6.00
19340;HTU21D;9804;52.350;6.684;2024-03-02T14:55:55;17.15;-6.00
19340;HTU21D;9804;52.350;6.684;2024-03-02T14:58:21;17.18;-6.00
19340;HTU21D;9804;52.350;6.684;2024-03-02T15:00:46;17.21;-6.00
19340;HTU21D;9804;52.350;6.684;2024-03-02T15:03:12;17.10;-6.00
19340;HTU21D;9804;52.350;6.684;2024-03-02T15:05:38;17.04;-6.00
19340;HTU21D;9804;52.350;6.684;2024-03-02T15:08:04;17.24;-6.00
19340;HTU21D;9804;52.350;6.684;2024-03-02T15:10:30;17.02;-6.00
19340;HTU21D;9804;52.350;6.684;2024-03-02T15:12:57;16.85;-6.00
19340;HTU21D;9804;52.350;6.684;2024-03-02T15:15:22;16.86;-6.00
19340;HTU21D;9804;52.350;6.684;2024-03-02T15:17:48;16.81;-6.00
19340;HTU21D;9804;52.350;6.684;2024-03-02T15:20:13;16.61;-6.00
19340;HTU21D;9804;52.350;6.684;2024-03-02T15:22:39;16.54;-6.00
19340;HTU21D;9804;52.350;6.684;2024-03-02T15:25:05;16.67;-6.00
19340;HTU21D;9804;52.350;6.684;2024-03-02T15:27:30;16.59;-6.00
19340;HTU21D;9804;52.350;6.684;2024-03-02T15:29:56;16.34;-6.00
19340;HTU21D;9804;52.350;6.684;2024-03-02T15:32:23;16.33;-6.00
19340;HTU21D;9804;52.350;6.684;2024-03-02T15:34:48;16.30;-6.00
19340;HTU21D;9804;52.350;6.684;2024-03-02T15:37:14;16.12;-6.00
19340;HTU21D;9804;52.350;6.684;2024-03-02T15:39:39;16.02;-6.00
19340;HTU21D;9804;52.350;6.684;2024-03-02T15:42:05;16.11;-6.00
19340;HTU21D;9804;52.350;6.684;2024-03-02T15:44:31;16.12;-6.00
19340;HTU21D;9804;52.350;6.684;2024-03-02T15:46:58;15.82;-6.00